Extreme hitte van: 13-08-2020 07:00 tot: 14-08-2020 23:00 waarschuwing voor: Extreme hitte niveau: Geel info button
De komende dagen is er sprake van aanhoudende hitte.Het Nationaal Hitteplan van het RIVM is actief.Er is sprake van aanhoudende hitte.Besteed extra zorg en aandacht aan kwetsbare mensen in uw omgeving.Met name ouderen en mensen met een chronische aandoening wordt geadviseerd maatregelen te nemen: drink voldoende, houd uzelf en uw woning koel.

Onweer van: 13-08-2020 15:00 tot: 21:00 waarschuwing voor: Onweer niveau: Geel info button
Lokaal stevige onweersbuien, met kans op hagel tot 2 cm, windstoten van 60-70 km/uur en lokaal veel neerslag (20-40 mm) in korte tijd.Kans op blikseminslag, hagel, windstoten en veel neerslag in korte tijd.Verkeer en buitenactiviteiten kunnen hinder ondervinden.Mijd open water en open gebied, schuil niet onder bomen.Volg weerberichten en waarschuwingen.


waarschuwing voor Onweer Meer informatie blitzortung!



METAR rapporten vliegvelden

   
EBAW - Antwerp
Gewijzigd: 13-08-2020 10:20
Helder  
Helder  
   Wind: ZO 5.6 km/h
Wind: ZO 5.6 km/h
Temperatuur: 26°C
Dauwpunt: 20°C
Vochtigheid: 70%
Barometer: 1011 hPa
Zicht: meer dan 10 km
Bewolking: Helder
EBAW 130820Z 14003KT 090V220 CAVOK 26/20 Q1011 NOSIG
EBLG - Li├Ęge
Gewijzigd: 13-08-2020 10:20
Helder  
Helder  
   Wind: Zuiden 13 km/h
Wind: Zuiden 13 km/h
Temperatuur: 26°C
Dauwpunt: 16°C
Vochtigheid: 54%
Barometer: 1012 hPa
Zicht: meer dan 10 km
Bewolking: Helder
EBLG 130820Z 17007KT CAVOK 26/16 Q1012 NOSIG
EBCV - Mons/Bergen
Gewijzigd: 13-08-2020 09:55
Grotendeels bewolkt  
Grotendeels bewolkt  
   Wind: varieert 1.9 km/h
Wind: varieert 1.9 km/h
Temperatuur: 25°C
Dauwpunt: 18°C
Vochtigheid: 65%
Barometer: 1011 hPa
Bewolking: Grotendeels bewolkt
Zicht: 5 km
Bewolking: Grotendeels bewolkt 12000 ft,
Grotendeels bewolkt 19000 ft
EBCV 130755Z AUTO VRB01KT 5000 BKN120/// BKN190/// 25/18 Q1011 WHT
EHBK - Maastricht
Gewijzigd: 13-08-2020 09:55
Helder  
Helder  
   Wind: Zuiden 5.6 km/h
Wind: Zuiden 5.6 km/h
Temperatuur: 26°C
Dauwpunt: 19°C
Vochtigheid: 65%
Barometer: 1012 hPa
Bewolking: Helder
Zicht: meer dan 10 km
Bewolking: Helder
EHBK 130755Z AUTO 18003KT 120V230 9999 NCD 26/19 Q1012 NOSIG
ELLX - Luxemburg
Gewijzigd: 13-08-2020 10:20
Helder  
Helder  
   Wind: ZW 9.3 km/h
Wind: ZW 9.3 km/h
Temperatuur: 22°C
Dauwpunt: 17°C
Vochtigheid: 73%
Barometer: 1014 hPa
Zicht: meer dan 10 km
Bewolking: Helder
ELLX 130820Z 22005KT 200V260 CAVOK 22/17 Q1014 NOSIG
EBOS - Oostende
Gewijzigd: 13-08-2020 10:20
Nevel, Gedeeltelijk bewolkt  
Nevel, Gedeeltelijk bewolkt  
   Wind: ZW 13 km/h
Wind: ZW 13 km/h
Temperatuur: 23°C
Dauwpunt: 20°C
Vochtigheid: 83%
Barometer: 1012 hPa
Bewolking: Gedeeltelijk bewolkt
Zicht: 4.5 km
Bewolking: Gedeeltelijk bewolkt
EBOS 130820Z 22007KT 4500 BR NSC 23/20 Q1012 BECMG 6000 NSW

Script ontwikkeld door  Saratoga-weather.org Aangepast voor de template door  Weerstation Leuven